createdAt,value
2023-04-07T00:02:05.927Z,97680.00
2023-04-07T00:04:51.260Z,97710.69
2023-04-07T00:07:44.902Z,97637.56
2023-04-07T00:10:30.463Z,97588.16
2023-04-07T00:13:16.225Z,97663.63
2023-04-07T00:16:01.932Z,97643.50
2023-04-07T00:18:47.406Z,97636.91
2023-04-07T00:21:32.900Z,97604.19
2023-04-07T00:24:27.497Z,97684.28
2023-04-07T00:27:19.150Z,97681.94
2023-04-07T00:30:04.725Z,97677.94
2023-04-07T00:32:51.823Z,97686.41
2023-04-07T00:35:37.462Z,97687.34
2023-04-07T00:38:22.853Z,97568.47
2023-04-07T00:41:08.342Z,97491.03
2023-04-07T00:43:53.929Z,97648.78
2023-04-07T00:46:39.915Z,97675.88
2023-04-07T00:49:28.441Z,97492.84
2023-04-07T00:52:14.662Z,97498.72
2023-04-07T00:55:00.658Z,97677.72
2023-04-07T00:57:46.827Z,97559.25
2023-04-07T01:00:38.350Z,97700.81
2023-04-07T01:03:39.154Z,97526.13
2023-04-07T01:06:29.865Z,97720.56
2023-04-07T01:09:23.690Z,97492.59
2023-04-07T01:12:29.081Z,97675.72
2023-04-07T01:15:20.822Z,97690.22
2023-04-07T01:18:20.768Z,97529.13
2023-04-07T01:21:09.753Z,97665.06
2023-04-07T01:24:16.697Z,97497.00
2023-04-07T01:27:21.963Z,97524.22
2023-04-07T01:30:11.784Z,97587.13
2023-04-07T01:33:00.449Z,97693.94
2023-04-07T01:35:46.916Z,97697.28
2023-04-07T01:38:33.312Z,97518.75
2023-04-07T01:41:19.206Z,97511.19
2023-04-07T01:44:08.028Z,97714.09
2023-04-07T01:46:54.356Z,97682.88
2023-04-07T01:49:41.224Z,97688.63
2023-04-07T01:52:28.003Z,97564.81
2023-04-07T01:55:13.566Z,97679.44
2023-04-07T01:58:12.342Z,97678.81
2023-04-07T02:01:00.797Z,97752.72
2023-04-07T02:04:07.915Z,97710.69
2023-04-07T02:06:59.419Z,97749.41
2023-04-07T02:09:57.854Z,97508.00
2023-04-07T02:12:46.326Z,97702.91
2023-04-07T02:15:37.145Z,97600.59
2023-04-07T02:18:23.445Z,97707.50
2023-04-07T02:21:11.034Z,97715.56
2023-04-07T02:23:57.032Z,97690.31
2023-04-07T02:26:43.026Z,97544.22
2023-04-07T02:29:28.625Z,97701.91
2023-04-07T02:32:14.019Z,97691.16
2023-04-07T02:34:59.277Z,97541.66
2023-04-07T02:37:46.283Z,97697.88
2023-04-07T02:40:31.569Z,97620.81
2023-04-07T02:43:19.066Z,97517.00
2023-04-07T02:46:04.791Z,97489.34
2023-04-07T02:48:50.552Z,97701.69
2023-04-07T02:51:36.411Z,97519.69
2023-04-07T02:54:21.733Z,97707.06
2023-04-07T02:57:07.125Z,97525.34
2023-04-07T02:59:52.465Z,97532.13
2023-04-07T03:02:37.984Z,97671.53
2023-04-07T03:05:23.768Z,97574.34
2023-04-07T03:08:10.986Z,97706.06
2023-04-07T03:10:58.322Z,97743.91
2023-04-07T03:13:47.100Z,97750.88
2023-04-07T03:16:33.708Z,97759.84
2023-04-07T03:19:24.656Z,97722.75
2023-04-07T03:22:10.994Z,97544.72
2023-04-07T03:25:04.168Z,97549.72
2023-04-07T03:27:49.736Z,97644.56
2023-04-07T03:30:35.715Z,97749.50
2023-04-07T03:33:21.138Z,97758.94
2023-04-07T03:36:07.614Z,97540.06
2023-04-07T03:38:53.534Z,97694.06
2023-04-07T03:41:39.306Z,97731.09
2023-04-07T03:44:25.551Z,97534.06
2023-04-07T03:47:11.049Z,97557.47
2023-04-07T03:49:57.734Z,97586.28
2023-04-07T03:52:43.113Z,97737.25
2023-04-07T03:55:39.916Z,97740.28
2023-04-07T03:58:32.900Z,97631.69
2023-04-07T04:01:19.045Z,97673.44
2023-04-07T04:04:07.207Z,97416.16
2023-04-07T04:06:53.534Z,97717.41
2023-04-07T04:09:44.483Z,97767.09
2023-04-07T04:12:31.090Z,97784.50
2023-04-07T04:15:25.484Z,97576.75
2023-04-07T04:18:14.877Z,97762.34
2023-04-07T04:21:00.613Z,97735.94
2023-04-07T04:23:46.768Z,97719.19
2023-04-07T04:26:32.281Z,97601.59
2023-04-07T04:29:24.217Z,97614.09
2023-04-07T04:32:11.573Z,97588.41
2023-04-07T04:34:57.471Z,97781.00
2023-04-07T04:37:44.249Z,97730.72
2023-04-07T04:40:30.885Z,97790.91
2023-04-07T04:43:17.367Z,97628.38
2023-04-07T04:46:03.354Z,97607.41
2023-04-07T04:48:54.186Z,97667.06
2023-04-07T04:51:42.247Z,97808.13
2023-04-07T04:54:36.483Z,97810.13
2023-04-07T04:57:23.541Z,97655.75
2023-04-07T05:00:14.406Z,97790.13
2023-04-07T05:03:09.882Z,97817.59
2023-04-07T05:05:59.809Z,97823.09
2023-04-07T05:08:45.508Z,97615.75
2023-04-07T05:11:32.612Z,97814.97
2023-04-07T05:14:18.590Z,97685.75
2023-04-07T05:17:11.209Z,97784.78
2023-04-07T05:19:57.202Z,97830.72
2023-04-07T05:22:53.658Z,97835.88
2023-04-07T05:25:43.843Z,97828.41
2023-04-07T05:28:29.606Z,97864.28
2023-04-07T05:31:19.145Z,97614.47
2023-04-07T05:34:07.242Z,97680.13
2023-04-07T05:36:58.260Z,97852.63
2023-04-07T05:39:43.898Z,97810.03
2023-04-07T05:42:31.928Z,97645.97
2023-04-07T05:45:17.422Z,97667.84
2023-04-07T05:48:06.358Z,97857.34
2023-04-07T05:51:00.678Z,97825.88
2023-04-07T05:53:46.187Z,97869.78
2023-04-07T05:56:32.353Z,97859.13
2023-04-07T05:59:18.711Z,97730.19
2023-04-07T06:02:05.109Z,97670.41
2023-04-07T06:04:51.096Z,97823.81
2023-04-07T06:07:38.465Z,97896.75
2023-04-07T06:10:24.146Z,97730.00
2023-04-07T06:13:09.747Z,97821.78
2023-04-07T06:15:58.378Z,97674.94
2023-04-07T06:18:43.730Z,97670.84
2023-04-07T06:21:29.151Z,97878.06
2023-04-07T06:24:14.493Z,97850.94
2023-04-07T06:27:01.433Z,97883.59
2023-04-07T06:29:47.167Z,97896.75
2023-04-07T06:32:33.528Z,97857.88
2023-04-07T06:35:19.518Z,97686.16
2023-04-07T06:38:05.397Z,97824.47
2023-04-07T06:40:52.958Z,97922.22
2023-04-07T06:43:53.926Z,97897.22
2023-04-07T06:46:47.724Z,97715.94
2023-04-07T06:49:35.129Z,97897.28
2023-04-07T06:52:22.060Z,97700.78
2023-04-07T06:55:21.532Z,97905.84
2023-04-07T06:58:07.281Z,97858.41
2023-04-07T07:00:52.819Z,97897.50
2023-04-07T07:03:38.392Z,97934.50
2023-04-07T07:06:24.058Z,97919.22
2023-04-07T07:09:09.816Z,97922.75
2023-04-07T07:11:56.077Z,97959.06
2023-04-07T07:14:41.962Z,97925.78
2023-04-07T07:17:27.898Z,97935.31
2023-04-07T07:20:13.562Z,97786.44
2023-04-07T07:22:59.842Z,97969.69
2023-04-07T07:25:45.778Z,97825.78
2023-04-07T07:28:31.720Z,97864.53
2023-04-07T07:31:17.588Z,97908.97
2023-04-07T07:34:04.838Z,97916.13
2023-04-07T07:37:22.233Z,97953.31
2023-04-07T07:40:16.087Z,97894.53
2023-04-07T07:43:02.146Z,97966.66
2023-04-07T07:45:47.953Z,97878.16
2023-04-07T07:48:33.633Z,97983.66
2023-04-07T07:51:19.592Z,97911.19
2023-04-07T07:54:06.492Z,97987.28
2023-04-07T07:56:53.444Z,97967.41
2023-04-07T07:59:40.646Z,97978.03
2023-04-07T08:02:30.946Z,97841.06
2023-04-07T08:05:16.557Z,97991.13
2023-04-07T08:08:03.046Z,98002.09
2023-04-07T08:10:49.071Z,97971.19
2023-04-07T08:13:39.917Z,98000.09
2023-04-07T08:16:27.540Z,98006.31
2023-04-07T08:19:14.173Z,97968.03
2023-04-07T08:22:00.704Z,97997.25
2023-04-07T08:24:46.876Z,98009.25
2023-04-07T08:27:32.828Z,98021.13
2023-04-07T08:30:18.596Z,98012.38
2023-04-07T08:33:06.787Z,98010.91
2023-04-07T08:35:52.811Z,98016.59
2023-04-07T08:38:39.210Z,97832.88
2023-04-07T08:41:36.841Z,98038.28
2023-04-07T08:44:23.770Z,97885.41
2023-04-07T08:47:11.814Z,98039.22
2023-04-07T08:50:09.180Z,98030.06
2023-04-07T08:52:57.490Z,97980.91
2023-04-07T08:55:43.594Z,98038.16
2023-04-07T08:58:30.570Z,98035.94
2023-04-07T09:01:17.194Z,98048.91
2023-04-07T09:04:08.110Z,97987.81
2023-04-07T09:06:54.498Z,98053.47
2023-04-07T09:09:43.322Z,97958.38
2023-04-07T09:12:30.976Z,98049.84
2023-04-07T09:15:17.248Z,97998.53
2023-04-07T09:18:03.608Z,97984.28
2023-04-07T09:20:58.565Z,98064.81
2023-04-07T09:23:46.035Z,98074.66
2023-04-07T09:26:34.148Z,98073.50
2023-04-07T09:29:21.356Z,97962.66
2023-04-07T09:32:08.108Z,98074.16
2023-04-07T09:34:59.516Z,97888.75
2023-04-07T09:37:47.695Z,98046.94
2023-04-07T09:40:34.352Z,98098.63
2023-04-07T09:43:20.445Z,98071.69
2023-04-07T09:46:10.906Z,98099.47
2023-04-07T09:49:05.392Z,97937.66
2023-04-07T09:51:57.935Z,98119.28
2023-04-07T09:54:43.956Z,97881.09
2023-04-07T09:57:30.540Z,98054.03
2023-04-07T10:00:16.804Z,98111.81
2023-04-07T10:03:06.304Z,98003.53
2023-04-07T10:05:54.927Z,98108.38
2023-04-07T10:08:43.346Z,98111.22
2023-04-07T10:11:29.028Z,98113.00
2023-04-07T10:14:16.543Z,98121.75
2023-04-07T10:17:05.134Z,98105.00
2023-04-07T10:19:51.644Z,98069.41
2023-04-07T10:22:39.045Z,98123.22
2023-04-07T10:25:27.012Z,98119.97
2023-04-07T10:28:13.975Z,98133.88
2023-04-07T10:31:00.623Z,98086.34
2023-04-07T10:33:49.137Z,98101.84
2023-04-07T10:36:35.440Z,97892.31
2023-04-07T10:39:22.098Z,97937.25
2023-04-07T10:42:07.963Z,98146.94
2023-04-07T10:44:55.101Z,98170.31
2023-04-07T10:48:03.964Z,98140.41
2023-04-07T10:51:05.239Z,98171.78
2023-04-07T10:54:23.158Z,98147.66
2023-04-07T10:57:14.542Z,98151.13
2023-04-07T11:00:12.859Z,98003.56
2023-04-07T11:03:13.446Z,98145.88
2023-04-07T11:06:10.668Z,98162.94
2023-04-07T11:08:56.664Z,98074.66
2023-04-07T11:11:48.103Z,98160.19
2023-04-07T11:14:37.400Z,98049.59
2023-04-07T11:17:23.314Z,97984.31
2023-04-07T11:20:09.990Z,98076.16
2023-04-07T11:23:02.059Z,98159.34
2023-04-07T11:25:48.934Z,98173.47
2023-04-07T11:28:35.177Z,98143.56
2023-04-07T11:31:23.493Z,98167.78
2023-04-07T11:34:09.927Z,98174.00
2023-04-07T11:36:59.681Z,98057.56
2023-04-07T11:39:48.333Z,98169.47
2023-04-07T11:42:40.443Z,98178.75
2023-04-07T11:45:26.162Z,98187.59
2023-04-07T11:48:29.240Z,98190.25
2023-04-07T11:51:20.795Z,98148.63
2023-04-07T11:54:06.902Z,97997.38
2023-04-07T11:56:55.751Z,98189.91
2023-04-07T11:59:42.593Z,98208.69
2023-04-07T12:02:37.506Z,98200.66
2023-04-07T12:05:25.479Z,98236.72
2023-04-07T12:08:14.623Z,98014.88
2023-04-07T12:11:05.380Z,98189.28
2023-04-07T12:13:51.954Z,98166.94
2023-04-07T12:16:40.841Z,98167.88
2023-04-07T12:19:28.513Z,98209.47
2023-04-07T12:22:14.400Z,98206.22
2023-04-07T12:24:59.933Z,98220.66
2023-04-07T12:27:45.953Z,98226.91
2023-04-07T12:30:32.197Z,98211.81
2023-04-07T12:33:18.309Z,98166.50
2023-04-07T12:36:04.413Z,98223.28
2023-04-07T12:38:50.280Z,98155.13
2023-04-07T12:41:36.929Z,98232.88
2023-04-07T12:44:24.872Z,98175.56
2023-04-07T12:47:12.383Z,98235.81
2023-04-07T12:49:58.812Z,98244.78
2023-04-07T12:52:45.046Z,98231.19
2023-04-07T12:55:33.766Z,98240.25
2023-04-07T12:58:19.985Z,98171.56
2023-04-07T13:01:06.487Z,98220.44
2023-04-07T13:03:54.183Z,98261.97
2023-04-07T13:06:41.181Z,98229.91
2023-04-07T13:09:28.049Z,98246.00
2023-04-07T13:12:14.364Z,98103.41
2023-04-07T13:15:05.782Z,98246.84
2023-04-07T13:17:52.615Z,98235.72
2023-04-07T13:20:39.586Z,98238.66
2023-04-07T13:23:26.471Z,98244.75
2023-04-07T13:26:13.697Z,98206.84
2023-04-07T13:29:00.329Z,98247.19
2023-04-07T13:31:46.721Z,98290.88
2023-04-07T13:34:32.754Z,98272.38
2023-04-07T13:37:19.785Z,98260.97
2023-04-07T13:40:06.649Z,98200.38
2023-04-07T13:42:52.359Z,98071.28
2023-04-07T13:45:37.903Z,98255.31
2023-04-07T13:48:23.512Z,98079.38
2023-04-07T13:51:10.630Z,98294.34
2023-04-07T13:53:57.510Z,98245.41
2023-04-07T13:56:43.372Z,98278.69
2023-04-07T13:59:28.883Z,98213.47
2023-04-07T14:02:14.986Z,98108.03
2023-04-07T14:05:01.058Z,98275.31
2023-04-07T14:07:47.335Z,98208.66
2023-04-07T14:10:34.248Z,98249.28
2023-04-07T14:13:21.165Z,98201.28
2023-04-07T14:16:08.237Z,98312.44
2023-04-07T14:18:54.737Z,98269.16
2023-04-07T14:21:43.073Z,98297.41
2023-04-07T14:24:28.783Z,98212.50
2023-04-07T14:27:20.824Z,98292.69
2023-04-07T14:30:07.620Z,98306.50
2023-04-07T14:32:56.938Z,98319.72
2023-04-07T14:35:43.833Z,98315.72
2023-04-07T14:38:29.936Z,98314.97
2023-04-07T14:41:15.588Z,98236.09
2023-04-07T14:44:01.288Z,98105.56
2023-04-07T14:46:47.330Z,98321.00
2023-04-07T14:49:33.827Z,98328.50
2023-04-07T14:52:22.147Z,98332.19
2023-04-07T14:55:09.171Z,98330.97
2023-04-07T14:57:54.580Z,98355.44
2023-04-07T15:00:40.730Z,98339.69
2023-04-07T15:03:26.860Z,98303.88
2023-04-07T15:06:14.013Z,98321.66
2023-04-07T15:09:00.408Z,98342.75
2023-04-07T15:11:46.548Z,98350.81
2023-04-07T15:14:32.719Z,98233.91
2023-04-07T15:17:23.656Z,98343.75
2023-04-07T15:20:16.563Z,98350.00
2023-04-07T15:23:03.596Z,98345.56
2023-04-07T15:25:51.601Z,98356.09
2023-04-07T15:28:38.255Z,98354.41
2023-04-07T15:31:27.311Z,98324.50
2023-04-07T15:34:14.285Z,98357.16
2023-04-07T15:37:03.872Z,98359.91
2023-04-07T15:39:51.259Z,98260.88
2023-04-07T15:42:41.704Z,98366.06
2023-04-07T15:45:28.639Z,98371.56
2023-04-07T15:48:18.120Z,98367.13
2023-04-07T15:51:03.883Z,98356.38
2023-04-07T15:53:52.286Z,98377.72
2023-04-07T15:56:38.082Z,98268.53
2023-04-07T15:59:24.869Z,98369.25
2023-04-07T16:02:13.684Z,98367.78
2023-04-07T16:05:01.067Z,98393.16
2023-04-07T16:07:48.192Z,98384.31
2023-04-07T16:10:35.328Z,98294.97
2023-04-07T16:13:21.528Z,98375.41
2023-04-07T16:16:07.755Z,98380.16
2023-04-07T16:18:53.859Z,98375.41
2023-04-07T16:21:40.121Z,98379.00
2023-04-07T16:24:26.006Z,98394.03
2023-04-07T16:27:12.062Z,98408.34
2023-04-07T16:29:57.999Z,98379.63
2023-04-07T16:32:44.691Z,98200.13
2023-04-07T16:35:32.085Z,98395.16
2023-04-07T16:38:18.443Z,98409.44
2023-04-07T16:41:04.792Z,98380.47
2023-04-07T16:43:51.056Z,98400.31
2023-04-07T16:46:36.842Z,98381.13
2023-04-07T16:49:22.245Z,98404.97
2023-04-07T16:52:07.964Z,98398.91
2023-04-07T16:54:53.686Z,98359.00
2023-04-07T16:57:40.084Z,98418.47
2023-04-07T17:00:26.098Z,98409.44
2023-04-07T17:03:14.220Z,98425.69
2023-04-07T17:06:05.731Z,98313.25
2023-04-07T17:08:52.428Z,98434.13
2023-04-07T17:11:40.877Z,98442.75
2023-04-07T17:14:26.933Z,98431.63
2023-04-07T17:17:14.064Z,98422.28
2023-04-07T17:20:00.000Z,98438.13
2023-04-07T17:22:46.942Z,98438.13
2023-04-07T17:25:33.419Z,98452.78
2023-04-07T17:28:18.970Z,98391.72
2023-04-07T17:31:04.415Z,98466.00
2023-04-07T17:33:54.108Z,98474.00
2023-04-07T17:36:41.368Z,98429.50
2023-04-07T17:39:26.794Z,98294.69
2023-04-07T17:42:12.363Z,98363.25
2023-04-07T17:44:58.038Z,98484.19
2023-04-07T17:47:43.640Z,98482.69
2023-04-07T17:50:32.920Z,98482.59
2023-04-07T17:53:19.844Z,98515.03
2023-04-07T17:56:06.649Z,98500.44
2023-04-07T17:58:52.622Z,98550.22
2023-04-07T18:01:38.825Z,98473.75
2023-04-07T18:04:26.334Z,98514.19
2023-04-07T18:07:13.403Z,98503.94
2023-04-07T18:09:58.950Z,98556.41
2023-04-07T18:12:47.341Z,98348.88
2023-04-07T18:15:33.652Z,98525.16
2023-04-07T18:18:20.219Z,98494.53
2023-04-07T18:21:07.204Z,98529.06
2023-04-07T18:23:53.015Z,98543.88
2023-04-07T18:26:38.645Z,98554.09
2023-04-07T18:29:24.252Z,98535.53
2023-04-07T18:32:09.602Z,98367.84
2023-04-07T18:34:55.310Z,98352.47
2023-04-07T18:37:42.344Z,98504.47
2023-04-07T18:40:32.748Z,98547.38
2023-04-07T18:43:18.491Z,98392.13
2023-04-07T18:46:04.014Z,98348.25
2023-04-07T18:48:50.655Z,98541.66
2023-04-07T18:51:37.557Z,98459.50
2023-04-07T18:54:24.258Z,98521.16
2023-04-07T18:57:09.757Z,98533.22
2023-04-07T18:59:55.586Z,98499.19
2023-04-07T19:02:44.658Z,98511.34
2023-04-07T19:05:31.019Z,98482.81
2023-04-07T19:08:17.403Z,98432.44
2023-04-07T19:11:02.840Z,98575.97
2023-04-07T19:13:49.682Z,98497.72
2023-04-07T19:16:36.302Z,98507.44
2023-04-07T19:19:21.732Z,98540.59
2023-04-07T19:22:07.328Z,98461.34
2023-04-07T19:24:53.612Z,98508.66
2023-04-07T19:27:39.776Z,98549.34
2023-04-07T19:30:25.250Z,98545.19
2023-04-07T19:33:11.805Z,98412.72
2023-04-07T19:35:57.465Z,98547.31
2023-04-07T19:38:43.073Z,98587.53
2023-04-07T19:41:29.409Z,98556.56
2023-04-07T19:44:16.910Z,98540.09
2023-04-07T19:47:08.293Z,98475.03
2023-04-07T19:49:55.040Z,98563.34
2023-04-07T19:52:45.811Z,98547.06
2023-04-07T19:55:32.638Z,98482.16
2023-04-07T19:58:21.283Z,98572.41
2023-04-07T20:01:15.540Z,98566.06
2023-04-07T20:04:01.656Z,98579.41
2023-04-07T20:06:49.756Z,98571.16
2023-04-07T20:09:39.535Z,98576.13
2023-04-07T20:12:25.129Z,98539.88
2023-04-07T20:15:11.179Z,98376.75
2023-04-07T20:17:56.870Z,98406.31
2023-04-07T20:20:42.349Z,98582.78
2023-04-07T20:23:27.887Z,98602.38
2023-04-07T20:26:13.586Z,98528.06
2023-04-07T20:28:59.204Z,98544.09
2023-04-07T20:31:45.358Z,98590.47
2023-04-07T20:34:31.468Z,98566.53
2023-04-07T20:37:17.226Z,98572.44
2023-04-07T20:40:04.317Z,98586.00
2023-04-07T20:42:49.940Z,98569.56
2023-04-07T20:45:35.592Z,98592.53
2023-04-07T20:48:23.951Z,98582.78
2023-04-07T20:51:09.586Z,98499.91
2023-04-07T20:53:55.116Z,98589.16
2023-04-07T20:56:42.901Z,98585.25
2023-04-07T20:59:29.176Z,98454.53
2023-04-07T21:02:16.685Z,98580.34
2023-04-07T21:05:04.344Z,98568.06
2023-04-07T21:07:50.184Z,98602.59
2023-04-07T21:10:36.406Z,98613.22
2023-04-07T21:13:22.655Z,98596.38
2023-04-07T21:16:08.381Z,98585.56
2023-04-07T21:18:54.395Z,98560.97
2023-04-07T21:21:39.743Z,98626.03
2023-04-07T21:24:25.264Z,98509.16
2023-04-07T21:27:11.930Z,98403.84
2023-04-07T21:29:58.683Z,98529.47
2023-04-07T21:32:47.257Z,98582.03
2023-04-07T21:35:32.440Z,98442.09
2023-04-07T21:38:18.031Z,98570.75
2023-04-07T21:41:04.017Z,98566.78
2023-04-07T21:43:49.846Z,98370.31
2023-04-07T21:46:37.830Z,98616.13
2023-04-07T21:49:25.312Z,98574.91
2023-04-07T21:52:10.795Z,98567.88
2023-04-07T21:54:56.394Z,98545.75
2023-04-07T21:57:41.913Z,98584.03
2023-04-07T22:00:28.003Z,98594.78
2023-04-07T22:03:13.989Z,98545.28
2023-04-07T22:06:00.256Z,98349.88
2023-04-07T22:08:54.853Z,98584.97
2023-04-07T22:11:46.627Z,98596.09
2023-04-07T22:14:32.279Z,98420.22
2023-04-07T22:17:17.397Z,98584.34
2023-04-07T22:20:03.755Z,98398.75
2023-04-07T22:22:49.719Z,98408.22
2023-04-07T22:25:35.493Z,98587.25
2023-04-07T22:28:21.438Z,98584.19
2023-04-07T22:31:06.852Z,98582.94
2023-04-07T22:33:52.313Z,98583.31
2023-04-07T22:36:38.320Z,98576.66
2023-04-07T22:39:23.735Z,98573.09
2023-04-07T22:42:09.288Z,98599.34
2023-04-07T22:44:54.605Z,98609.72
2023-04-07T22:47:40.367Z,98470.81
2023-04-07T22:50:25.780Z,98407.63
2023-04-07T22:53:11.425Z,98554.97
2023-04-07T22:55:56.926Z,98613.03
2023-04-07T22:58:42.236Z,98539.06
2023-04-07T23:01:27.809Z,98510.31
2023-04-07T23:04:13.903Z,98459.41
2023-04-07T23:06:59.374Z,98586.09
2023-04-07T23:09:44.752Z,98593.06
2023-04-07T23:12:29.907Z,98459.75
2023-04-07T23:15:15.326Z,98612.19
2023-04-07T23:18:00.840Z,98586.97
2023-04-07T23:20:52.019Z,98574.94
2023-04-07T23:23:39.233Z,98531.59
2023-04-07T23:26:24.889Z,98416.63
2023-04-07T23:29:10.277Z,98594.56
2023-04-07T23:31:55.933Z,98403.31
2023-04-07T23:34:41.258Z,98421.06
2023-04-07T23:37:26.597Z,98583.59
2023-04-07T23:40:12.829Z,98388.53
2023-04-07T23:42:58.440Z,98379.19
2023-04-07T23:45:43.892Z,98429.72
2023-04-07T23:48:31.019Z,98532.25
2023-04-07T23:51:16.395Z,98552.44
2023-04-07T23:54:02.095Z,98381.34
2023-04-07T23:56:47.602Z,98559.81
2023-04-07T23:59:33.164Z,98510.75
